• Join FlightAware (Why Join?)
  • Login
  • US Flag 
03:48PM EDT


 

Airport Tracker/Info


-or-


 

Live Flight TrackerFlight Track Log ✈ N525LE ✈ 14-Nov-2013 ✈ KJAX - KMQJ

Flight Track Log - Related Links

Times and Time Zones

All times are in EST time to prevent confusion due to time zone crossing. See the N525LE flight status page for this flight to view local times or setup timezone preferences in your user account.

Time Position Orientation Groundspeed Altitude Reporting Facility
EST Latitude Longitude Course Direction KTS MPH feet Rate Location/Type
05:17PM 30.5031 -81.6797 32° Northeast 141 162 500  Level Jacksonville Center
05:18PM 30.5464 -81.6481 32° Northeast 228 262 3,100 2,040 Climbing Jacksonville Center
05:19PM 30.5822 -81.6814 321° Northwest 248 285 4,700 2,520 Climbing Jacksonville Center
05:19PM 30.5992 -81.6956 324° Northwest 265 305 5,700 2,580 Climbing Jacksonville Center
05:20PM 30.6392 -81.7336 321° Northwest 248 285 7,300 2,640 Climbing Jacksonville Center
05:20PM 30.6581 -81.7456 331° Northwest 246 283 8,400 2,280 Climbing Jacksonville Center
05:21PM 30.6917 -81.7742 324° Northwest 242 278 9,600 1,920 Climbing Jacksonville Center
05:22PM 30.7400 -81.8144 324° Northwest 247 284 11,600 1,740 Climbing Jacksonville Center
05:23PM 30.7969 -81.8622 324° Northwest 247 284 13,100 1,440 Climbing Jacksonville Center
05:24PM 30.8556 -81.9075 326° Northwest 247 284 14,600 1,440 Climbing Jacksonville Center
05:25PM 30.9125 -81.9556 324° Northwest 247 284 16,100 1,500 Climbing Jacksonville Center
05:26PM 30.9753 -81.9961 331° Northwest 247 284 17,600 1,260 Climbing Jacksonville Center
05:27PM 31.0403 -82.0294 336° Northwest 252 290 18,700 1,200 Climbing Jacksonville Center
05:28PM 31.1114 -82.0531 344° North 357 411 20,000 1,140 Climbing Jacksonville Center
05:29PM 31.1806 -82.0767 344° North 313 360 21,000 960 Climbing Jacksonville Center
05:30PM 31.2517 -82.1028 343° North 278 320 22,000 960 Climbing Jacksonville Center
05:31PM 31.3228 -82.1264 344° North 266 306 23,000 960 Climbing Jacksonville Center
05:32PM 31.3939 -82.1503 344° North 266 306 24,000 960 Climbing Jacksonville Center
05:33PM 31.4631 -82.1764 342° North 266 306 25,000 960 Climbing Jacksonville Center
05:34PM 31.5342 -82.1978 346° North 261 300 26,000 900 Climbing Jacksonville Center
05:35PM 31.6011 -82.2217 343° North 261 300 26,800 660 Climbing Jacksonville Center
05:37PM 31.7589 -82.2681 346° North 266 306 28,100 660 Climbing Atlanta Center
05:38PM 31.8344 -82.2911 345° North 266 306 29,000 960 Climbing Atlanta Center
05:39PM 31.9097 -82.3117 347° North 271 312 30,100 1,080 Climbing Atlanta Center
05:40PM 31.9789 -82.3250 351° North 265 305 31,200 960 Climbing Atlanta Center
05:41PM 32.0481 -82.3481 344° North 257 296 32,100 720 Climbing Atlanta Center
05:42PM 32.1089 -82.3764 338° Northwest 246 283 32,700 420 Climbing Atlanta Center
05:43PM 32.1742 -82.4047 340° North 246 283 33,000 420 Climbing Atlanta Center
05:44PM 32.2453 -82.4328 342° North 253 291 33,600 480 Climbing Atlanta Center
05:45PM 32.3106 -82.4636 338° Northwest 253 291 34,000 180 Climbing Atlanta Center
05:46PM 32.3819 -82.4992 337° Northwest 253 291 34,000  Level Atlanta Center
05:47PM 32.4553 -82.5250 343° North 270 311 34,000  Level Atlanta Center
05:48PM 32.5331 -82.5581 340° North 282 325 34,000  Level Atlanta Center
05:49PM 32.6128 -82.5939 339° North 293 337 34,000  Level Atlanta Center
05:50PM 32.6925 -82.6294 339° North 293 337 34,000  Level Atlanta Center
05:51PM 32.7742 -82.6628 341° North 299 344 34,000  Level Atlanta Center
05:52PM 32.8561 -82.7011 339° North 309 356 34,000 180 Level Atlanta Center
05:53PM 32.9400 -82.7369 340° North 309 356 34,400 600 Climbing Atlanta Center
05:54PM 33.0133 -82.7681 340° North 304 350 35,300 720 Climbing Atlanta Center
05:55PM 33.0867 -82.8017 339° North 285 328 35,900 300 Climbing Atlanta Center
05:56PM 33.1600 -82.8328 340° North 285 328 36,000  Climbing Atlanta Center
05:57PM 33.2333 -82.8667 339° North 280 322 36,000  Level Atlanta Center
05:58PM 33.3108 -82.9003 340° North 280 322 36,000  Level Atlanta Center
05:59PM 33.3864 -82.9367 338° Northwest 285 328 36,000  Level Atlanta Center
06:00PM 33.4639 -82.9706 340° North 290 334 36,000  Level Atlanta Center
06:01PM 33.5519 -83.0044 342° North 290 334 36,000  Level Atlanta Center
06:02PM 33.6397 -83.0158 354° North 298 343 36,000  Level Atlanta Center
06:03PM 33.7317 -83.0222 357° North 324 373 36,000  Level Atlanta Center
06:04PM 33.8256 -83.0261 358° North 335 386 36,000  Level Atlanta Center
06:05PM 33.9194 -83.0350 356° North 329 379 36,000  Level Atlanta Center
06:06PM 34.0094 -83.0414 357° North 329 379 36,000  Level Atlanta Center
06:07PM 34.1033 -83.0503 356° North 329 379 36,000  Level Atlanta Center
06:08PM 34.1953 -83.0542 358° North 329 379 36,000  Level Atlanta Center
06:09PM 34.2911 -83.0456 North 329 379 36,000  Level Atlanta Center
06:10PM 34.3789 -83.0597 352° North 329 379 36,000  Level Atlanta Center
06:11PM 34.4586 -83.0992 338° Northwest 309 356 36,000  Level Atlanta Center
06:12PM 34.5381 -83.1411 336° Northwest 309 356 36,000  Level Atlanta Center
06:13PM 34.6094 -83.1781 337° Northwest 309 356 36,000  Level Atlanta Center
06:14PM 34.6889 -83.2178 338° Northwest 309 356 36,000  Level Atlanta Center
06:15PM 34.7769 -83.2700 334° Northwest 315 362 36,000  Level Atlanta Center
06:16PM 34.8564 -83.3072 339° North 315 362 36,000  Level Atlanta Center
06:17PM 34.9319 -83.3522 334° Northwest 309 356 36,000  Level Atlanta Center
06:18PM 35.0114 -83.3919 338° Northwest 309 356 36,000  Level Atlanta Center
06:19PM 35.0931 -83.4294 339° North 309 356 36,000  Level Atlanta Center
06:20PM 35.1744 -83.4697 338° Northwest 304 350 36,000  Level Atlanta Center
06:21PM 35.2519 -83.5147 335° Northwest 309 356 36,000  Level Atlanta Center
06:22PM 35.3314 -83.5550 338° Northwest 309 356 36,000  Level Atlanta Center
06:23PM 35.4108 -83.5978 336° Northwest 309 356 36,000  Level Atlanta Center
06:24PM 35.4903 -83.6408 336° Northwest 309 356 36,000  Level Atlanta Center
06:25PM 35.5697 -83.6789 339° North 309 356 36,000  Level Atlanta Center
06:26PM 35.6489 -83.7219 336° Northwest 304 350 36,000  Level Atlanta Center
06:27PM 35.7283 -83.7675 335° Northwest 304 350 36,000  Level Atlanta Center
06:28PM 35.8078 -83.8058 339° North 304 350 36,000  Level Atlanta Center
06:29PM 35.8872 -83.8492 336° Northwest 304 350 36,000  Level Atlanta Center
06:30PM 35.9664 -83.8925 336° Northwest 304 350 36,000  Level Atlanta Center
06:31PM 36.0458 -83.9361 336° Northwest 304 350 36,000  Level Atlanta Center
06:32PM 36.1253 -83.9747 339° North 313 360 36,000  Level Indianapolis Center
06:33PM 36.2206 -84.0258 337° Northwest 311 358 36,000  Level Indianapolis Center
06:34PM 36.3003 -84.0686 337° Northwest 312 359 36,000  Level Indianapolis Center
06:35PM 36.3808 -84.1122 336° Northwest 315 362 36,000  Level Indianapolis Center
06:36PM 36.4614 -84.1556 337° Northwest 316 364 36,000  Level Indianapolis Center
06:37PM 36.5511 -84.2039 337° Northwest 316 364 36,000  Level Indianapolis Center
06:38PM 36.6319 -84.2483 336° Northwest 316 364 36,000  Level Indianapolis Center
06:39PM 36.7131 -84.2928 336° Northwest 317 365 36,000  Level Indianapolis Center
06:40PM 36.7953 -84.3378 336° Northwest 318 366 36,000  Level Indianapolis Center
06:41PM 36.8767 -84.3825 336° Northwest 319 367 36,000  Level Indianapolis Center
06:42PM 36.9717 -84.4353 336° Northwest 318 366 36,000  Level Indianapolis Center
06:43PM 37.0517 -84.4783 337° Northwest 315 362 36,000  Level Indianapolis Center
06:44PM 37.1344 -84.5236 336° Northwest 321 369 36,000  Level Indianapolis Center
06:45PM 37.2161 -84.5689 336° Northwest 320 368 36,000  Level Indianapolis Center
06:46PM 37.2978 -84.6147 336° Northwest 320 368 36,000  Level Indianapolis Center
06:47PM 37.3794 -84.6597 336° Northwest 321 369 36,000  Level Indianapolis Center
06:48PM 37.4744 -84.7119 336° Northwest 318 366 36,000  Level Indianapolis Center
06:50PM 37.5547 -84.7583 335° Northwest 316 364 36,000  Level Indianapolis Center
06:51PM 37.6364 -84.8044 336° Northwest 319 367 36,000 -120 Level Indianapolis Center
06:52PM 37.7172 -84.8506 336° Northwest 319 367 35,800 -600 Descending Indianapolis Center
06:53PM 37.8036 -84.8978 337° Northwest 333 383 34,800 -1,020 Descending Indianapolis Center
06:54PM 37.8961 -84.9478 337° Northwest 356 410 33,700 -1,080 Descending Indianapolis Center
06:55PM 38.0006 -85.0089 335° Northwest 355 409 32,600 -1,080 Descending Indianapolis Center
06:56PM 38.0939 -85.0597 337° Northwest 362 417 31,500 -1,380 Descending Indianapolis Center
06:57PM 38.1903 -85.1142 336° Northwest 374 430 29,800 -1,620 Descending Indianapolis Center
06:58PM 38.2867 -85.1697 336° Northwest 379 436 28,200 -1,620 Descending Indianapolis Center
06:59PM 38.3856 -85.2264 336° Northwest 379 436 26,500 -1,620 Descending Indianapolis Center
07:00PM 38.4803 -85.2747 338° Northwest 370 426 24,900 -1,560 Descending Indianapolis Center
07:01PM 38.5814 -85.3039 347° North 373 429 23,300 -1,560 Descending Indianapolis Center
07:02PM 38.6833 -85.3361 346° North 375 432 21,700 -1,800 Descending Indianapolis Center
07:03PM 38.8044 -85.3700 348° North 370 426 19,700 -1,860 Descending Indianapolis Center
07:04PM 38.8908 -85.4186 336° Northwest 349 402 17,900 -1,680 Descending Indianapolis Center
07:05PM 38.9658 -85.4817 327° Northwest 324 373 16,300 -1,620 Descending Indianapolis Center
07:06PM 39.0419 -85.5439 328° Northwest 323 372 14,700 -1,140 Descending Indianapolis Center
07:07PM 39.1144 -85.6028 328° Northwest 314 361 14,000 -960 Descending Indianapolis Center
07:08PM 39.1942 -85.6386 341° North 312 359 12,800 -1,440 Descending Indianapolis Center
07:09PM 39.2947 -85.6764 344° North 312 359 11,100 -1,560 Descending Indianapolis Center
07:10PM 39.3739 -85.7083 343° North 307 353 9,600 -1,500 Descending Indianapolis Center
07:11PM 39.4533 -85.7331 346° North 302 348 8,100 -1,500 Descending Indianapolis Center
07:12PM 39.5308 -85.7497 351° North 296 341 6,600 -840 Descending Indianapolis Center
07:13PM 39.6069 -85.7678 350° North 294 338 6,400 -240 Descending Indianapolis Center
07:16PM 39.7490 -85.8402 339° North  Level FlightAware Approximate
07:23PM 39.8333 -85.8833 339° North  Level FlightAware Approximate
07:24PM 39.8435 -85.8971 339° North  Level Estimated
07:25PM 39.8435 -85.8971 339° North  Level Estimated
07:26PM 39.8435 -85.8971 339° North  Level Estimated
07:27PM 39.8435 -85.8971 339° North  Level Estimated
07:28PM 39.8435 -85.8971 339° North  Level Estimated
07:29PM 39.8435 -85.8971 339° North  Level Estimated
07:30PM 39.8435 -85.8971 339° North  Level Estimated
07:31PM 39.8435 -85.8971 339° North  Level Estimated
07:32PM 39.8435 -85.8971 339° North  Level Estimated
07:33PM 39.8435 -85.8971 339° North  Level Estimated